Аэропорт: Шымкент. Шымкент

ICAO: UAII

METAR:
2020-06-04 04:36:00
UAII 040436Z 21004MPS 180V240 CAVOK 35/09 Q1007 R10/0///70 NOSIG RMK QFE720/0960
METAR:
2020-06-03 23:00:00
TAF UAII 032300Z 0400/0424 23003G08MPS 6000 SCT050 BKN100 TX39/0409Z TN20/0401Z TEMPO 0400/0404 13006MPS TEMPO 0404/0415 27005G10MPS FEW050CB TEMPO 0415/0424 13003G08MPS